createdAt,value
2018-01-27T00:02:10.984Z,28.17
2018-01-27T00:04:37.302Z,27.55
2018-01-27T00:07:04.476Z,26.75
2018-01-27T00:09:31.037Z,26.70
2018-01-27T00:11:57.128Z,25.77
2018-01-27T00:14:23.201Z,25.05
2018-01-27T00:16:49.254Z,26.00
2018-01-27T00:19:15.293Z,25.27
2018-01-27T00:21:42.069Z,25.15
2018-01-27T00:24:08.117Z,26.30
2018-01-27T00:26:34.366Z,26.77
2018-01-27T00:29:00.417Z,27.25
2018-01-27T00:31:27.189Z,25.73
2018-01-27T00:33:54.157Z,25.65
2018-01-27T00:36:20.198Z,27.58
2018-01-27T00:38:47.336Z,30.25
2018-01-27T00:41:14.209Z,33.17
2018-01-27T00:43:40.233Z,29.52
2018-01-27T00:46:07.029Z,26.40
2018-01-27T00:48:33.086Z,24.40
2018-01-27T00:50:59.107Z,25.88
2018-01-27T00:53:25.160Z,26.50
2018-01-27T00:55:51.165Z,26.85
2018-01-27T00:58:17.202Z,26.43
2018-01-27T01:00:43.252Z,28.35
2018-01-27T01:03:09.280Z,26.50
2018-01-27T01:05:35.305Z,24.23
2018-01-27T01:08:01.728Z,26.67
2018-01-27T01:10:28.689Z,25.17
2018-01-27T01:12:55.456Z,27.17
2018-01-27T01:15:21.542Z,25.62
2018-01-27T01:17:47.850Z,25.27
2018-01-27T01:20:14.226Z,26.92
2018-01-27T01:22:40.528Z,28.92
2018-01-27T01:25:07.489Z,26.67
2018-01-27T01:27:34.601Z,27.70
2018-01-27T01:30:00.804Z,26.77
2018-01-27T01:32:27.081Z,25.48
2018-01-27T01:34:53.305Z,28.27
2018-01-27T01:37:19.496Z,28.45
2018-01-27T01:39:45.753Z,26.67
2018-01-27T01:42:18.215Z,26.70
2018-01-27T01:44:44.420Z,27.13
2018-01-27T01:47:10.669Z,26.50
2018-01-27T01:49:37.065Z,26.30
2018-01-27T01:52:03.268Z,26.65
2018-01-27T01:54:29.501Z,26.40
2018-01-27T01:56:55.697Z,29.55
2018-01-27T01:59:21.921Z,29.12
2018-01-27T02:01:48.873Z,26.02
2018-01-27T02:04:15.108Z,26.62
2018-01-27T02:06:41.285Z,25.60
2018-01-27T02:09:07.496Z,26.50
2018-01-27T02:11:33.765Z,25.62
2018-01-27T02:14:00.000Z,27.73
2018-01-27T02:16:26.223Z,26.83
2018-01-27T02:18:52.432Z,26.65
2018-01-27T02:21:18.532Z,26.65
2018-01-27T02:23:44.557Z,24.15
2018-01-27T02:26:10.600Z,24.10
2018-01-27T02:28:36.619Z,24.98
2018-01-27T02:31:05.629Z,24.27
2018-01-27T02:33:32.389Z,25.40
2018-01-27T02:35:59.389Z,25.17
2018-01-27T02:38:26.512Z,25.45
2018-01-27T02:40:52.844Z,25.25
2018-01-27T02:43:19.984Z,24.80
2018-01-27T02:45:46.964Z,25.12
2018-01-27T02:48:13.332Z,26.40
2018-01-27T02:50:40.312Z,26.23
2018-01-27T02:53:06.747Z,24.45
2018-01-27T02:55:33.208Z,25.30
2018-01-27T02:58:00.197Z,26.45
2018-01-27T03:00:26.434Z,25.40
2018-01-27T03:02:52.638Z,26.40
2018-01-27T03:05:19.179Z,26.58
2018-01-27T03:07:45.408Z,27.23
2018-01-27T03:10:11.702Z,24.05
2018-01-27T03:12:38.021Z,26.83
2018-01-27T03:15:04.984Z,26.48
2018-01-27T03:17:31.208Z,26.10
2018-01-27T03:19:57.444Z,24.08
2018-01-27T03:22:23.656Z,26.17
2018-01-27T03:24:49.876Z,25.90
2018-01-27T03:27:16.845Z,24.00
2018-01-27T03:29:43.071Z,24.80
2018-01-27T03:32:10.024Z,26.52
2018-01-27T03:34:36.224Z,25.17
2018-01-27T03:37:02.456Z,26.20
2018-01-27T03:39:28.649Z,25.12
2018-01-27T03:41:55.620Z,26.23
2018-01-27T03:44:21.839Z,26.75
2018-01-27T03:46:48.053Z,25.20
2018-01-27T03:49:14.297Z,26.35
2018-01-27T03:51:41.911Z,26.85
2018-01-27T03:54:08.196Z,25.48
2018-01-27T03:56:34.396Z,24.35
2018-01-27T03:59:00.624Z,24.17
2018-01-27T04:01:26.864Z,25.50
2018-01-27T04:03:53.836Z,26.02
2018-01-27T04:06:20.047Z,24.77
2018-01-27T04:08:46.265Z,25.37
2018-01-27T04:11:12.469Z,27.37
2018-01-27T04:13:40.037Z,25.85
2018-01-27T04:16:06.332Z,26.25
2018-01-27T04:18:32.543Z,25.98
2018-01-27T04:20:58.768Z,25.20
2018-01-27T04:23:24.992Z,26.58
2018-01-27T04:25:51.945Z,27.92
2018-01-27T04:28:18.908Z,25.92
2018-01-27T04:30:45.468Z,26.40
2018-01-27T04:33:12.404Z,25.67
2018-01-27T04:35:38.639Z,25.02
2018-01-27T04:38:07.612Z,26.15
2018-01-27T04:40:33.884Z,26.48
2018-01-27T04:43:01.945Z,25.35
2018-01-27T04:45:28.185Z,26.25
2018-01-27T04:47:54.425Z,26.48
2018-01-27T04:50:20.665Z,26.80
2018-01-27T04:52:46.852Z,26.15
2018-01-27T04:55:13.808Z,27.27
2018-01-27T04:57:40.032Z,27.75
2018-01-27T05:00:06.244Z,26.40
2018-01-27T05:02:32.447Z,28.10
2018-01-27T05:04:58.659Z,29.00
2018-01-27T05:07:25.416Z,27.73
2018-01-27T05:09:51.434Z,30.45
2018-01-27T05:12:18.221Z,31.05
2018-01-27T05:14:44.240Z,32.03
2018-01-27T05:17:11.003Z,31.48
2018-01-27T05:19:37.115Z,31.58
2018-01-27T05:22:03.144Z,30.27
2018-01-27T05:24:29.188Z,32.50
2018-01-27T05:26:55.206Z,31.23
2018-01-27T05:29:22.172Z,31.87
2018-01-27T05:31:48.196Z,30.25
2018-01-27T05:34:14.227Z,33.10
2018-01-27T05:36:40.268Z,30.60
2018-01-27T05:39:06.284Z,33.78
2018-01-27T05:41:32.308Z,29.92
2018-01-27T05:43:58.333Z,35.35
2018-01-27T05:46:24.356Z,31.90
2018-01-27T05:48:51.126Z,35.15
2018-01-27T05:51:17.161Z,33.45
2018-01-27T05:53:43.192Z,34.47
2018-01-27T05:56:09.204Z,31.40
2018-01-27T05:58:35.264Z,30.62
2018-01-27T06:01:01.305Z,32.15
2018-01-27T06:03:28.055Z,33.63
2018-01-27T06:05:54.825Z,32.95
2018-01-27T06:08:20.860Z,30.98
2018-01-27T06:10:46.885Z,30.50
2018-01-27T06:13:13.694Z,31.50
2018-01-27T06:15:39.764Z,30.23
2018-01-27T06:18:06.571Z,30.10
2018-01-27T06:20:32.565Z,31.70
2018-01-27T06:23:01.884Z,29.58
2018-01-27T06:25:28.846Z,28.95
2018-01-27T06:27:55.076Z,30.02
2018-01-27T06:30:21.920Z,29.77
2018-01-27T06:32:49.053Z,28.92
2018-01-27T06:35:16.117Z,28.83
2018-01-27T06:37:42.396Z,29.50
2018-01-27T06:40:08.594Z,29.37
2018-01-27T06:42:34.833Z,31.58
2018-01-27T06:45:07.231Z,28.85
2018-01-27T06:47:33.265Z,28.70
2018-01-27T06:49:59.324Z,31.52
2018-01-27T06:52:26.312Z,31.90
2018-01-27T06:54:53.228Z,35.53
2018-01-27T06:57:19.468Z,32.90
2018-01-27T06:59:45.704Z,33.55
2018-01-27T07:02:11.917Z,32.08
2018-01-27T07:04:38.260Z,36.65
2018-01-27T07:07:04.483Z,31.55
2018-01-27T07:09:30.696Z,32.72
2018-01-27T07:11:56.948Z,31.48
2018-01-27T07:14:23.199Z,30.90
2018-01-27T07:16:49.428Z,31.45
2018-01-27T07:19:15.656Z,32.28
2018-01-27T07:21:41.980Z,33.15
2018-01-27T07:24:08.212Z,32.15
2018-01-27T07:26:34.520Z,34.15
2018-01-27T07:29:00.719Z,32.90
2018-01-27T07:31:26.935Z,33.30
2018-01-27T07:33:53.163Z,33.28
2018-01-27T07:36:19.378Z,33.70
2018-01-27T07:38:45.864Z,34.00
2018-01-27T07:41:12.099Z,31.40
2018-01-27T07:43:38.564Z,34.55
2018-01-27T07:46:04.781Z,34.55
2018-01-27T07:48:31.017Z,34.97
2018-01-27T07:50:57.233Z,31.58
2018-01-27T07:53:23.523Z,37.13
2018-01-27T07:55:49.752Z,36.10
2018-01-27T07:58:15.961Z,33.50
2018-01-27T08:00:45.319Z,36.17
2018-01-27T08:03:11.532Z,37.08
2018-01-27T08:05:39.468Z,34.47
2018-01-27T08:08:06.453Z,35.13
2018-01-27T08:10:32.481Z,33.55
2018-01-27T08:12:58.512Z,32.55
2018-01-27T08:15:24.733Z,32.70
2018-01-27T08:17:51.729Z,33.20
2018-01-27T08:20:18.365Z,32.28
2018-01-27T08:22:45.331Z,32.13
2018-01-27T08:25:12.261Z,35.97
2018-01-27T08:27:38.655Z,34.95
2018-01-27T08:30:08.968Z,38.38
2018-01-27T08:32:35.197Z,36.53
2018-01-27T08:35:02.169Z,38.33
2018-01-27T08:37:28.172Z,38.03
2018-01-27T08:39:54.421Z,36.35
2018-01-27T08:42:22.209Z,38.38
2018-01-27T08:44:48.428Z,35.45
2018-01-27T08:47:14.644Z,35.38
2018-01-27T08:49:40.929Z,31.65
2018-01-27T08:52:08.737Z,34.50
2018-01-27T08:54:34.956Z,34.38
2018-01-27T08:57:01.908Z,32.38
2018-01-27T08:59:28.856Z,32.85
2018-01-27T09:01:55.066Z,31.98
2018-01-27T09:04:21.256Z,32.22
2018-01-27T09:06:47.537Z,32.08
2018-01-27T09:09:13.734Z,32.83
2018-01-27T09:11:40.509Z,31.27
2018-01-27T09:14:06.825Z,33.90
2018-01-27T09:16:33.593Z,31.02
2018-01-27T09:18:59.619Z,31.60
2018-01-27T09:21:27.726Z,32.55
2018-01-27T09:23:54.065Z,32.30
2018-01-27T09:26:20.104Z,31.77
2018-01-27T09:28:46.134Z,33.15
2018-01-27T09:31:12.180Z,30.15
2018-01-27T09:33:38.368Z,29.92
2018-01-27T09:36:04.397Z,32.97
2018-01-27T09:38:30.739Z,31.33
2018-01-27T09:40:57.092Z,33.53
2018-01-27T09:43:23.298Z,31.87
2018-01-27T09:45:49.536Z,33.70
2018-01-27T09:48:15.756Z,33.55
2018-01-27T09:50:42.069Z,30.48
2018-01-27T09:53:09.324Z,32.30
2018-01-27T09:55:35.341Z,32.72
2018-01-27T09:58:01.374Z,31.33
2018-01-27T10:00:27.960Z,29.58
2018-01-27T10:02:54.968Z,32.25
2018-01-27T10:05:21.175Z,29.47
2018-01-27T10:07:47.393Z,28.38
2018-01-27T10:10:13.603Z,31.30
2018-01-27T10:12:39.836Z,26.40
2018-01-27T10:15:06.070Z,28.53
2018-01-27T10:17:33.128Z,26.05
2018-01-27T10:20:00.160Z,27.45
2018-01-27T10:22:27.153Z,27.92
2018-01-27T10:24:53.377Z,28.80
2018-01-27T10:27:19.848Z,29.02
2018-01-27T10:29:46.096Z,27.30
2018-01-27T10:32:12.604Z,29.00
2018-01-27T10:34:38.844Z,29.53
2018-01-27T10:37:05.088Z,31.17
2018-01-27T10:39:31.304Z,31.40
2018-01-27T10:41:58.272Z,26.98
2018-01-27T10:44:25.230Z,30.37
2018-01-27T10:46:51.504Z,28.90
2018-01-27T10:49:17.737Z,29.90
2018-01-27T10:51:44.037Z,28.10
2018-01-27T10:54:11.094Z,27.48
2018-01-27T10:56:38.105Z,26.92
2018-01-27T10:59:04.329Z,25.10
2018-01-27T11:01:31.273Z,29.25
2018-01-27T11:03:59.709Z,26.95
2018-01-27T11:06:26.007Z,25.12
2018-01-27T11:08:55.133Z,28.80
2018-01-27T11:11:22.080Z,26.48
2018-01-27T11:13:49.077Z,26.50
2018-01-27T11:16:15.313Z,25.92
2018-01-27T11:18:41.593Z,23.77
2018-01-27T11:21:07.836Z,24.50
2018-01-27T11:23:33.945Z,23.23
2018-01-27T11:26:03.125Z,25.33
2018-01-27T11:28:30.001Z,24.67
2018-01-27T11:30:56.992Z,22.87
2018-01-27T11:33:23.148Z,25.10
2018-01-27T11:35:49.916Z,23.47
2018-01-27T11:38:17.521Z,23.67
2018-01-27T11:40:43.733Z,22.60
2018-01-27T11:43:09.936Z,23.27
2018-01-27T11:45:36.283Z,26.27
2018-01-27T11:48:02.550Z,23.58
2018-01-27T11:50:28.764Z,24.10
2018-01-27T11:52:55.022Z,24.83
2018-01-27T11:55:21.992Z,22.10
2018-01-27T11:57:48.231Z,23.10
2018-01-27T12:00:15.184Z,23.10
2018-01-27T12:02:42.190Z,20.17
2018-01-27T12:05:09.041Z,18.63
2018-01-27T12:07:35.068Z,21.17
2018-01-27T12:10:05.159Z,19.07
2018-01-27T12:12:31.148Z,19.67
2018-01-27T12:14:57.165Z,21.40
2018-01-27T12:17:23.225Z,19.87
2018-01-27T12:19:49.453Z,20.77
2018-01-27T12:22:16.392Z,20.17
2018-01-27T12:24:45.101Z,20.47
2018-01-27T12:27:12.053Z,20.53
2018-01-27T12:29:39.317Z,19.90
2018-01-27T12:32:05.544Z,23.60
2018-01-27T12:34:32.526Z,23.07
2018-01-27T12:36:59.765Z,19.17
2018-01-27T12:39:26.757Z,22.63
2018-01-27T12:41:52.764Z,23.50
2018-01-27T12:44:18.984Z,22.00
2018-01-27T12:46:45.361Z,20.00
2018-01-27T12:49:11.620Z,20.73
2018-01-27T12:51:37.857Z,19.43
2018-01-27T12:54:04.151Z,20.00
2018-01-27T12:56:31.305Z,17.17
2018-01-27T12:58:58.209Z,18.43
2018-01-27T13:01:24.521Z,15.50
2018-01-27T13:03:50.746Z,16.20
2018-01-27T13:06:16.982Z,16.23
2018-01-27T13:08:43.440Z,14.20
2018-01-27T13:11:09.661Z,17.10
2018-01-27T13:13:35.951Z,15.73
2018-01-27T13:16:01.987Z,17.37
2018-01-27T13:18:28.745Z,16.60
2018-01-27T13:20:55.504Z,17.20
2018-01-27T13:23:21.521Z,20.20
2018-01-27T13:25:49.628Z,17.03
2018-01-27T13:28:18.114Z,18.40
2018-01-27T13:30:44.319Z,18.40
2018-01-27T13:33:10.545Z,18.47
2018-01-27T13:35:36.860Z,16.87
2018-01-27T13:38:03.376Z,18.23
2018-01-27T13:40:29.597Z,17.27
2018-01-27T13:42:59.342Z,16.13
2018-01-27T13:45:25.572Z,20.70
2018-01-27T13:47:51.808Z,18.70
2018-01-27T13:50:17.830Z,16.70
2018-01-27T13:52:43.856Z,16.27
2018-01-27T13:55:09.880Z,15.00
2018-01-27T13:57:36.780Z,15.63
2018-01-27T14:00:06.643Z,14.17
2018-01-27T14:02:32.919Z,16.17
2018-01-27T14:04:59.158Z,16.83
2018-01-27T14:07:26.180Z,15.90
2018-01-27T14:09:52.393Z,15.00
2018-01-27T14:12:18.616Z,16.27
2018-01-27T14:14:45.984Z,18.17
2018-01-27T14:17:12.947Z,14.93
2018-01-27T14:19:39.189Z,16.83
2018-01-27T14:22:05.468Z,15.17
2018-01-27T14:24:31.746Z,15.90
2018-01-27T14:26:58.717Z,16.70
2018-01-27T14:29:25.684Z,16.00
2018-01-27T14:31:51.980Z,16.83
2018-01-27T14:34:19.209Z,14.17
2018-01-27T14:36:45.240Z,15.80
2018-01-27T14:39:11.466Z,17.30
2018-01-27T14:41:37.713Z,17.17
2018-01-27T14:44:04.720Z,15.77
2018-01-27T14:46:36.600Z,15.63
2018-01-27T14:49:04.621Z,14.40
2018-01-27T14:51:30.872Z,17.47
2018-01-27T14:53:57.136Z,18.10
2018-01-27T14:56:23.380Z,17.10
2018-01-27T14:58:49.619Z,13.53
2018-01-27T15:01:15.685Z,16.73
2018-01-27T15:03:41.705Z,16.30
2018-01-27T15:06:07.757Z,14.83
2018-01-27T15:08:33.799Z,15.23
2018-01-27T15:10:59.904Z,15.47
2018-01-27T15:13:25.928Z,17.20
2018-01-27T15:15:51.964Z,16.97
2018-01-27T15:18:17.980Z,15.40
2018-01-27T15:20:44.015Z,15.20
2018-01-27T15:23:10.062Z,14.80
2018-01-27T15:25:36.117Z,14.70
2018-01-27T15:28:02.340Z,14.37
2018-01-27T15:30:29.071Z,14.70
2018-01-27T15:32:57.153Z,14.10
2018-01-27T15:35:23.360Z,14.10
2018-01-27T15:37:49.590Z,14.43
2018-01-27T15:40:15.904Z,15.63
2018-01-27T15:42:42.933Z,13.60
2018-01-27T15:45:12.084Z,15.53
2018-01-27T15:47:38.372Z,13.80
2018-01-27T15:50:04.595Z,14.57
2018-01-27T15:52:30.833Z,13.20
2018-01-27T15:54:57.058Z,14.23
2018-01-27T15:57:23.312Z,15.77
2018-01-27T15:59:49.586Z,14.03
2018-01-27T16:02:15.876Z,14.57
2018-01-27T16:04:42.113Z,13.27
2018-01-27T16:07:08.484Z,13.60
2018-01-27T16:09:34.743Z,14.10
2018-01-27T16:12:01.041Z,13.68
2018-01-27T16:14:28.108Z,14.90
2018-01-27T16:16:54.341Z,14.25
2018-01-27T16:19:20.780Z,14.48
2018-01-27T16:21:47.151Z,14.07
2018-01-27T16:24:13.377Z,13.30
2018-01-27T16:26:39.608Z,13.23
2018-01-27T16:29:05.883Z,14.50
2018-01-27T16:31:32.129Z,16.00
2018-01-27T16:33:58.380Z,14.63
2018-01-27T16:36:24.632Z,15.50
2018-01-27T16:38:51.628Z,16.35
2018-01-27T16:41:17.856Z,16.25
2018-01-27T16:43:44.831Z,16.85
2018-01-27T16:46:11.997Z,18.48
2018-01-27T16:48:38.329Z,19.48
2018-01-27T16:51:04.566Z,18.50
2018-01-27T16:53:30.575Z,17.92
2018-01-27T16:56:01.144Z,19.75
2018-01-27T16:58:27.922Z,17.70
2018-01-27T17:00:53.957Z,18.17
2018-01-27T17:03:19.985Z,17.75
2018-01-27T17:05:46.052Z,17.75
2018-01-27T17:08:12.089Z,17.00
2018-01-27T17:10:38.126Z,18.40
2018-01-27T17:13:06.743Z,17.45
2018-01-27T17:15:33.168Z,17.33
2018-01-27T17:17:59.201Z,16.25
2018-01-27T17:20:25.227Z,18.80
2018-01-27T17:22:51.251Z,14.23
2018-01-27T17:25:17.459Z,14.35
2018-01-27T17:27:43.733Z,14.38
2018-01-27T17:30:09.966Z,14.90
2018-01-27T17:32:36.225Z,13.93
2018-01-27T17:35:04.163Z,13.30
2018-01-27T17:37:30.404Z,14.55
2018-01-27T17:39:56.677Z,14.32
2018-01-27T17:42:22.973Z,14.73
2018-01-27T17:44:49.920Z,15.27
2018-01-27T17:47:16.172Z,14.85
2018-01-27T17:49:42.434Z,13.35
2018-01-27T17:52:14.578Z,14.45
2018-01-27T17:54:41.398Z,13.77
2018-01-27T17:57:07.641Z,13.77
2018-01-27T17:59:33.920Z,14.27
2018-01-27T18:02:00.193Z,14.20
2018-01-27T18:04:26.456Z,13.55
2018-01-27T18:06:52.710Z,13.82
2018-01-27T18:09:22.589Z,15.50
2018-01-27T18:11:48.785Z,13.93
2018-01-27T18:14:15.009Z,12.73
2018-01-27T18:16:41.232Z,11.15
2018-01-27T18:19:07.276Z,11.55
2018-01-27T18:21:33.555Z,12.15
2018-01-27T18:23:59.644Z,11.70
2018-01-27T18:26:26.441Z,11.63
2018-01-27T18:28:56.095Z,11.40
2018-01-27T18:31:23.984Z,12.35
2018-01-27T18:33:50.980Z,11.60
2018-01-27T18:36:17.401Z,9.85
2018-01-27T18:38:43.660Z,11.10
2018-01-27T18:41:10.208Z,10.27
2018-01-27T18:43:36.988Z,9.85
2018-01-27T18:46:04.544Z,12.37
2018-01-27T18:48:31.533Z,10.15
2018-01-27T18:50:57.752Z,11.30
2018-01-27T18:53:24.716Z,10.50
2018-01-27T18:55:51.691Z,10.00
2018-01-27T18:58:17.927Z,9.85
2018-01-27T19:00:44.872Z,8.65
2018-01-27T19:03:15.364Z,9.38
2018-01-27T19:05:41.601Z,9.45
2018-01-27T19:08:08.058Z,9.25
2018-01-27T19:10:34.325Z,8.25
2018-01-27T19:13:01.336Z,9.57
2018-01-27T19:15:27.600Z,9.60
2018-01-27T19:17:53.804Z,8.18
2018-01-27T19:20:22.956Z,8.43
2018-01-27T19:22:49.181Z,8.60
2018-01-27T19:25:17.198Z,7.60
2018-01-27T19:27:43.554Z,8.77
2018-01-27T19:30:09.584Z,8.13
2018-01-27T19:32:35.648Z,8.13
2018-01-27T19:35:01.684Z,7.80
2018-01-27T19:37:28.089Z,7.85
2018-01-27T19:39:59.274Z,7.55
2018-01-27T19:42:26.040Z,8.30
2018-01-27T19:44:52.109Z,7.60
2018-01-27T19:47:18.880Z,8.02
2018-01-27T19:49:45.119Z,6.80
2018-01-27T19:52:11.353Z,8.30
2018-01-27T19:54:41.221Z,7.87
2018-01-27T19:57:07.505Z,7.85
2018-01-27T19:59:34.577Z,7.75
2018-01-27T20:02:00.806Z,7.22
2018-01-27T20:04:27.040Z,6.50
2018-01-27T20:06:53.293Z,7.07
2018-01-27T20:09:19.504Z,6.18
2018-01-27T20:11:45.729Z,7.00
2018-01-27T20:14:12.876Z,6.62
2018-01-27T20:16:39.645Z,6.15
2018-01-27T20:19:06.387Z,5.97
2018-01-27T20:21:33.159Z,6.10
2018-01-27T20:23:59.397Z,6.47
2018-01-27T20:26:25.845Z,5.55
2018-01-27T20:28:52.665Z,6.65
2018-01-27T20:31:18.901Z,6.53
2018-01-27T20:33:44.932Z,5.35
2018-01-27T20:36:12.217Z,5.90
2018-01-27T20:38:38.383Z,5.78
2018-01-27T20:41:05.288Z,5.60
2018-01-27T20:43:32.292Z,4.90
2018-01-27T20:45:58.320Z,4.70
2018-01-27T20:48:25.281Z,5.60
2018-01-27T20:50:52.068Z,5.55
2018-01-27T20:53:18.321Z,5.00
2018-01-27T20:55:44.401Z,4.53
2018-01-27T20:58:10.587Z,5.78
2018-01-27T21:00:37.002Z,5.55
2018-01-27T21:03:03.305Z,5.80
2018-01-27T21:05:29.528Z,5.20
2018-01-27T21:07:55.795Z,5.93
2018-01-27T21:10:22.036Z,4.22
2018-01-27T21:12:48.497Z,6.07
2018-01-27T21:15:14.809Z,5.87
2018-01-27T21:17:41.057Z,5.47
2018-01-27T21:20:09.133Z,4.60
2018-01-27T21:22:36.144Z,4.95
2018-01-27T21:25:05.598Z,4.90
2018-01-27T21:27:32.408Z,4.78
2018-01-27T21:29:59.187Z,5.53
2018-01-27T21:32:25.304Z,5.05
2018-01-27T21:34:52.137Z,5.45
2018-01-27T21:37:18.388Z,5.68
2018-01-27T21:39:45.420Z,5.22
2018-01-27T21:42:11.689Z,6.05
2018-01-27T21:44:39.393Z,5.57
2018-01-27T21:47:05.814Z,5.47
2018-01-27T21:49:32.152Z,5.60
2018-01-27T21:51:59.140Z,5.18
2018-01-27T21:54:25.394Z,4.50
2018-01-27T21:56:52.348Z,4.78
2018-01-27T21:59:19.288Z,4.93
2018-01-27T22:01:46.074Z,4.30
2018-01-27T22:04:12.326Z,5.80
2018-01-27T22:06:38.402Z,4.28
2018-01-27T22:09:04.611Z,5.15
2018-01-27T22:11:30.625Z,5.00
2018-01-27T22:13:56.665Z,3.92
2018-01-27T22:16:24.945Z,5.95
2018-01-27T22:18:51.175Z,4.75
2018-01-27T22:21:19.028Z,5.30
2018-01-27T22:23:46.026Z,4.37
2018-01-27T22:26:13.269Z,4.05
2018-01-27T22:28:39.517Z,4.00
2018-01-27T22:31:05.869Z,4.43
2018-01-27T22:33:32.120Z,4.68
2018-01-27T22:35:59.198Z,3.35
2018-01-27T22:38:25.467Z,4.35
2018-01-27T22:40:51.518Z,2.40
2018-01-27T22:43:17.712Z,3.50
2018-01-27T22:45:44.540Z,4.00
2018-01-27T22:48:10.620Z,3.80
2018-01-27T22:50:36.649Z,3.20
2018-01-27T22:53:03.672Z,3.30
2018-01-27T22:55:30.153Z,2.90
2018-01-27T22:57:56.475Z,2.80
2018-01-27T23:00:22.783Z,3.50
2018-01-27T23:02:49.019Z,3.75
2018-01-27T23:05:15.284Z,3.05
2018-01-27T23:07:41.674Z,3.65
2018-01-27T23:10:07.917Z,2.75
2018-01-27T23:12:34.932Z,3.72
2018-01-27T23:15:01.200Z,4.30
2018-01-27T23:17:28.282Z,3.50
2018-01-27T23:19:54.536Z,2.55
2018-01-27T23:22:20.877Z,3.40
2018-01-27T23:24:47.183Z,4.78
2018-01-27T23:27:13.652Z,2.90
2018-01-27T23:29:40.716Z,3.62
2018-01-27T23:32:08.384Z,3.75
2018-01-27T23:34:34.495Z,3.35
2018-01-27T23:37:00.520Z,4.87
2018-01-27T23:39:26.677Z,4.57
2018-01-27T23:41:53.056Z,4.40
2018-01-27T23:44:19.255Z,4.65
2018-01-27T23:46:45.302Z,5.00
2018-01-27T23:49:11.512Z,4.80
2018-01-27T23:51:37.711Z,3.58
2018-01-27T23:54:03.977Z,4.35
2018-01-27T23:56:30.321Z,4.68
2018-01-27T23:58:57.176Z,4.78
